Boyne City, MI (49712)

7:27 AM EDT on September 28, 2016 (GMT -0400)
3.4 mi SSW of Boyne City | | Change Station

Elev 820 ft 45.17 °N, 85.04 °W | Updated 45 days ago

Partly Cloudy
Partly Cloudy
55 °F
Feels Like 55 °F
N
5
Wind Variable Wind from East
Gusts mph

Today
High -- | Low -- °F
--% Chance of Precip.
Yesterday
High -- | Low -- °F
Precip. -- in
Pressure 29.91 in
Visibility 10.0 miles
Clouds Mostly Cloudy 9000 ft
Dew Point 51 °F
Humidity 86%
Rainfall in
Snow Depth Not available.
7:35 AM 7:25 PM
Waning Crescent, 6% visible
METAR KCVX 281115Z AUTO 10007KT 10SM BKN090 11/10 A2991 RMK AO2 T01060100
Pressure 29.91 in
Visibility 10.0 miles
Clouds Mostly Cloudy 9000 ft
Dew Point 51 °F
Humidity 86%
Rainfall in
Snow Depth Not available.
7:35 AM 7:25 PM
Waning Crescent, 6% visible
METAR KCVX 281115Z AUTO 10007KT 10SM BKN090 11/10 A2991 RMK AO2 T01060100

10-Day Weather Forecast

Almanac

Astronomy

Sep. 28, 2016 Rise Set
Actual Time
Civil Twilight
Nautical Twilight
Astronomical Twilight
Moon
Length of Visible Light
Length of Day
Tomorrow will be .
, % of the Moon is Illuminated

Today's Extremes

State Highs State Lows

Community

WunderPhotos

Upload Photos

1,942,232 photos uploaded!

WunderBlog® & News

Nearby

Air Quality

  Air Quality AQ Index Pollutant
Not available.

Snow Depth

Station Depth Elevation

Earthquake Activity

City Distance Mag. Time & Date
Minimum magnitude displayed is 2.5.

Coastal Water Temperatures

Place Temperature

Stations

Nearby Weather Stations

Station Location Temp. Windchill Dew Point Humidity Wind Precip. Elev Updated Type
                   

Watches & Warnings

There are currently no watches in effect.